Time;durP1;ratioP1;P1;durP2;ratioP2;P2;SDS_P1;SDS_P2;PMS_P1;PMS_P2;Temp;Humidity;BMP_temperature;BMP_pressure;BME280_temperature;BME280_humidity;BME280_pressure;Samples;Min_cycle;Max_cycle;Signal;HPM_P1;HPM_P2
2022/06/10 00:01:06;;;;;;;5.90;2.60;;;12.40;99.90;;;;;;5096382;28;21100;-89
2022/06/10 00:03:35;;;;;;;7.17;3.20;;;12.40;99.90;;;;;;5102222;28;20635;-90
2022/06/10 00:06:05;;;;;;;3.00;2.20;;;12.30;99.90;;;;;;5099659;28;20627;-90
2022/06/10 00:08:35;;;;;;;4.70;2.77;;;12.20;99.90;;;;;;5105515;28;20634;-89
2022/06/10 00:11:02;;;;;;;2.27;2.10;;;12.30;99.90;;;;;;5103970;28;21032;-87
2022/06/10 00:13:33;;;;;;;4.00;1.87;;;12.30;99.90;;;;;;5101928;28;20989;-88
2022/06/10 00:16:01;;;;;;;2.93;2.20;;;12.30;99.90;;;;;;5098424;28;20631;-89
2022/06/10 00:18:30;;;;;;;2.70;2.10;;;12.10;99.90;;;;;;5102763;28;20619;-88
2022/06/10 00:20:59;;;;;;;2.10;1.90;;;11.90;99.90;;;;;;5097211;28;20651;-87
2022/06/10 00:23:26;;;;;;;2.00;1.80;;;12.20;99.90;;;;;;5102262;28;20625;-88
2022/06/10 00:25:54;;;;;;;3.07;2.30;;;12.10;99.90;;;;;;5100976;28;20628;-87
2022/06/10 00:28:21;;;;;;;2.43;2.13;;;11.80;99.90;;;;;;5105089;28;20611;-89
2022/06/10 00:30:50;;;;;;;2.80;2.10;;;12.00;99.90;;;;;;5091826;28;21019;-90
2022/06/10 00:33:17;;;;;;;2.53;2.30;;;11.60;99.90;;;;;;5115319;28;20607;-89
2022/06/10 00:35:44;;;;;;;3.97;2.20;;;12.00;99.90;;;;;;5101084;28;20626;-89
2022/06/10 00:38:12;;;;;;;5.83;2.50;;;11.90;99.90;;;;;;5101412;28;20746;-89
2022/06/10 00:40:41;;;;;;;4.93;2.43;;;11.90;99.90;;;;;;5098901;28;20652;-89
2022/06/10 00:43:13;;;;;;;3.13;2.10;;;11.80;99.90;;;;;;5099658;28;20674;-88
2022/06/10 00:45:55;;;;;;;3.43;3.10;;;11.90;99.90;;;;;;5092304;28;20616;-88
2022/06/10 00:48:27;;;;;;;3.83;2.60;;;11.70;99.90;;;;;;5096125;28;20650;-88
2022/06/10 00:50:54;;;;;;;11.73;2.60;;;11.70;99.90;;;;;;5102412;28;20699;-89
2022/06/10 00:53:27;;;;;;;2.80;2.60;;;11.50;99.90;;;;;;5102102;28;20620;-88
2022/06/10 00:55:56;;;;;;;4.83;2.33;;;11.80;99.90;;;;;;5105688;28;20633;-88
2022/06/10 00:58:28;;;;;;;7.27;2.30;;;11.40;99.90;;;;;;5109904;28;20634;-88
2022/06/10 01:00:56;;;;;;;4.40;2.53;;;11.50;99.90;;;;;;5099300;28;20653;-89
2022/06/10 01:03:23;;;;;;;4.03;2.33;;;11.90;99.90;;;;;;5099918;28;20632;-89
2022/06/10 01:05:49;;;;;;;5.67;2.67;;;11.80;99.90;;;;;;5098454;28;20619;-87
2022/06/10 01:08:21;;;;;;;2.37;2.27;;;11.70;99.90;;;;;;5100042;28;20630;-87
2022/06/10 01:10:57;;;;;;;5.13;2.43;;;11.60;99.90;;;;;;5097086;28;20671;-88
2022/06/10 01:13:33;;;;;;;6.17;2.67;;;11.30;99.90;;;;;;5102374;28;20629;-89
2022/06/10 01:16:07;;;;;;;4.20;2.37;;;11.50;99.90;;;;;;5098298;28;21130;-88
2022/06/10 01:18:46;;;;;;;4.10;2.70;;;11.30;99.90;;;;;;5097731;28;20646;-88
2022/06/10 01:21:30;;;;;;;3.97;2.40;;;11.30;99.90;;;;;;5097161;28;20639;-88
2022/06/10 01:24:30;;;;;;;3.87;2.50;;;11.20;99.90;;;;;;5099878;28;20680;-88
2022/06/10 01:30:24;;;;;;;3.23;2.10;;;11.40;99.90;;;;;;5097080;28;21050;-88
2022/06/10 01:33:16;;;;;;;6.27;2.60;;;11.40;99.90;;;;;;5096612;28;21028;-88
2022/06/10 01:35:50;;;;;;;4.87;2.10;;;11.50;99.90;;;;;;5092710;28;20628;-88
2022/06/10 01:38:25;;;;;;;2.63;2.43;;;10.90;99.90;;;;;;5100637;28;20623;-88
2022/06/10 01:40:58;;;;;;;5.40;2.70;;;11.30;99.90;;;;;;5095937;28;20650;-89
2022/06/10 01:43:38;;;;;;;2.60;2.27;;;11.10;99.90;;;;;;5099057;28;20577;-89
2022/06/10 01:46:12;;;;;;;3.87;2.80;;;11.30;99.90;;;;;;5100478;28;21165;-89
2022/06/10 01:48:49;;;;;;;2.87;2.00;;;11.00;99.90;;;;;;5100150;28;21197;-89
2022/06/10 01:51:21;;;;;;;4.40;2.97;;;11.10;99.90;;;;;;5099006;28;21209;-90
2022/06/10 01:53:54;;;;;;;2.60;2.40;;;11.10;99.90;;;;;;5095957;28;20627;-89
2022/06/10 01:56:26;;;;;;;3.57;2.60;;;11.20;99.90;;;;;;5099614;28;20626;-89
2022/06/10 01:58:57;;;;;;;4.60;2.63;;;10.80;99.90;;;;;;5103096;28;20619;-89
2022/06/10 02:01:27;;;;;;;3.17;2.97;;;10.70;99.90;;;;;;5076741;28;20704;-90
2022/06/10 02:04:06;;;;;;;5.53;3.37;;;11.20;99.90;;;;;;5101807;28;20661;-89
2022/06/10 02:06:37;;;;;;;3.70;2.73;;;10.70;99.90;;;;;;5110723;27;20961;-90
2022/06/10 02:09:11;;;;;;;3.23;2.87;;;11.10;99.90;;;;;;5093161;28;21295;-89
2022/06/10 02:11:42;;;;;;;5.77;2.80;;;11.10;99.90;;;;;;5099034;28;21472;-90
2022/06/10 02:14:14;;;;;;;3.20;2.37;;;10.70;99.90;;;;;;5096343;28;20628;-89
2022/06/10 02:16:44;;;;;;;4.70;2.77;;;11.20;99.90;;;;;;5099295;28;20639;-90
2022/06/10 02:19:20;;;;;;;4.97;2.67;;;11.00;99.90;;;;;;5098739;28;20628;-90
2022/06/10 02:21:51;;;;;;;3.50;2.37;;;10.70;99.90;;;;;;5102717;28;20686;-89
2022/06/10 02:24:22;;;;;;;5.53;2.50;;;10.60;99.90;;;;;;5109123;28;20632;-90
2022/06/10 02:26:51;;;;;;;4.47;2.67;;;11.00;99.90;;;;;;5091980;28;20623;-89
2022/06/10 02:29:20;;;;;;;3.20;2.70;;;10.60;99.90;;;;;;5098673;28;20643;-89
2022/06/10 02:31:51;;;;;;;4.67;3.20;;;11.00;99.90;;;;;;5086975;28;20656;-91
2022/06/10 02:34:19;;;;;;;5.50;3.00;;;11.00;99.90;;;;;;5097437;28;20623;-90
2022/06/10 02:36:54;;;;;;;3.40;2.60;;;11.00;99.90;;;;;;5100773;28;20615;-90
2022/06/10 02:39:26;;;;;;;4.13;2.90;;;10.90;99.90;;;;;;5095001;28;20612;-92
2022/06/10 02:42:01;;;;;;;5.67;2.77;;;10.90;99.90;;;;;;5093356;28;20607;-91
2022/06/10 02:44:38;;;;;;;3.17;2.87;;;11.00;99.90;;;;;;5077170;28;20635;-92
2022/06/10 02:47:13;;;;;;;3.77;2.97;;;10.50;99.90;;;;;;5097357;28;20991;-91
2022/06/10 02:49:42;;;;;;;3.20;2.57;;;10.50;99.90;;;;;;5099528;28;20654;-91
2022/06/10 02:52:10;;;;;;;4.27;2.57;;;10.40;99.90;;;;;;5090672;28;20652;-91
2022/06/10 02:54:41;;;;;;;2.80;2.50;;;10.80;99.90;;;;;;5075196;28;20628;-90
2022/06/10 02:57:13;;;;;;;2.60;2.40;;;10.50;99.90;;;;;;5094937;28;20715;-90
2022/06/10 03:02:39;;;;;;;4.47;3.57;;;10.30;99.90;;;;;;5089368;28;20669;-90
2022/06/10 03:05:26;;;;;;;3.93;2.87;;;10.30;99.90;;;;;;5090795;28;20632;-90
2022/06/10 03:08:06;;;;;;;4.17;3.43;;;10.50;99.90;;;;;;5092202;28;20745;-89
2022/06/10 03:10:44;;;;;;;3.67;3.37;;;10.70;99.90;;;;;;5103217;28;20682;-88
2022/06/10 03:13:38;;;;;;;4.23;3.40;;;10.70;99.90;;;;;;5091328;28;20624;-90
2022/06/10 03:16:26;;;;;;;4.73;3.53;;;10.40;99.90;;;;;;5094863;28;20628;-90
2022/06/10 03:19:07;;;;;;;5.83;2.80;;;10.20;99.90;;;;;;5099156;28;20637;-89
2022/06/10 03:21:46;;;;;;;3.87;3.00;;;10.40;99.90;;;;;;5122188;28;22010;-89
2022/06/10 03:24:20;;;;;;;3.27;2.90;;;10.70;99.90;;;;;;5097302;28;20575;-90
2022/06/10 03:26:53;;;;;;;2.97;2.77;;;10.40;99.90;;;;;;5095884;28;20988;-90
2022/06/10 03:29:28;;;;;;;4.53;3.60;;;10.60;99.90;;;;;;5094770;28;20584;-89
2022/06/10 03:32:01;;;;;;;3.17;2.93;;;10.60;99.90;;;;;;5086196;28;21467;-88
2022/06/10 03:34:33;;;;;;;3.90;3.60;;;10.50;99.90;;;;;;5091684;28;20587;-88
2022/06/10 03:37:04;;;;;;;5.10;4.10;;;10.20;99.90;;;;;;5100930;28;20615;-88
2022/06/10 03:39:31;;;;;;;4.30;3.40;;;10.80;99.90;;;;;;5095404;28;20663;-88
2022/06/10 03:42:05;;;;;;;4.23;3.80;;;10.30;99.90;;;;;;5102072;28;20631;-91
2022/06/10 03:44:33;;;;;;;7.17;3.80;;;10.80;99.90;;;;;;5076095;28;20624;-90
2022/06/10 03:47:00;;;;;;;4.37;3.97;;;10.50;99.90;;;;;;5099084;28;20624;-89
2022/06/10 03:49:31;;;;;;;3.60;3.37;;;10.80;99.90;;;;;;5104414;28;20626;-90
2022/06/10 03:52:01;;;;;;;4.47;3.90;;;10.30;99.90;;;;;;5088152;28;20661;-90
2022/06/10 03:54:29;;;;;;;6.37;4.10;;;10.60;99.90;;;;;;5095911;28;20627;-90
2022/06/10 03:56:56;;;;;;;4.83;4.40;;;10.60;99.90;;;;;;5101058;28;20635;-91
2022/06/10 03:59:23;;;;;;;5.80;3.37;;;10.60;99.90;;;;;;5100893;28;20623;-90
2022/06/10 04:01:52;;;;;;;5.00;3.70;;;10.80;99.90;;;;;;5095399;28;20615;-89
2022/06/10 04:04:20;;;;;;;5.20;4.00;;;10.40;99.90;;;;;;5104744;28;20620;-88
2022/06/10 04:06:47;;;;;;;3.93;3.63;;;10.70;99.90;;;;;;5096830;28;20650;-91
2022/06/10 04:09:16;;;;;;;4.60;4.17;;;10.60;99.90;;;;;;5096387;28;20631;-89
2022/06/10 04:11:45;;;;;;;8.17;4.70;;;10.50;99.90;;;;;;5089889;28;20657;-89
2022/06/10 04:14:12;;;;;;;4.87;4.40;;;10.30;99.90;;;;;;5090624;28;20638;-88
2022/06/10 04:16:39;;;;;;;10.00;4.33;;;10.40;99.90;;;;;;5095532;28;20628;-88
2022/06/10 04:19:10;;;;;;;5.33;4.30;;;10.50;99.90;;;;;;5101250;28;20636;-89
2022/06/10 04:21:37;;;;;;;4.97;4.57;;;10.80;99.90;;;;;;5111289;28;20637;-90
2022/06/10 04:24:05;;;;;;;5.03;4.50;;;10.40;99.90;;;;;;5099866;28;20699;-91
2022/06/10 04:26:32;;;;;;;7.60;4.17;;;10.80;99.90;;;;;;5099973;28;20630;-90
2022/06/10 04:29:00;;;;;;;6.50;4.50;;;10.90;99.90;;;;;;5101946;28;20638;-90
2022/06/10 04:31:27;;;;;;;5.60;4.30;;;11.10;99.90;;;;;;5101734;28;20678;-91
2022/06/10 04:33:54;;;;;;;3.97;3.67;;;10.60;99.90;;;;;;5114807;28;20703;-89
2022/06/10 04:36:22;;;;;;;6.17;4.17;;;10.60;99.90;;;;;;5114162;28;20605;-89
2022/06/10 04:38:48;;;;;;;3.43;3.20;;;10.80;99.90;;;;;;5125722;28;20707;-90
2022/06/10 04:41:16;;;;;;;5.77;3.63;;;10.70;99.90;;;;;;5110580;28;20726;-89
2022/06/10 04:43:43;;;;;;;4.40;3.70;;;10.70;99.90;;;;;;5101098;28;20620;-90
2022/06/10 04:46:23;;;;;;;6.63;3.63;;;10.90;99.90;;;;;;5097583;28;20665;-90
2022/06/10 04:48:50;;;;;;;4.40;4.00;;;10.90;99.90;;;;;;5099464;28;21175;-90
2022/06/10 04:51:18;;;;;;;4.57;4.17;;;11.30;99.90;;;;;;5095456;28;20707;-89
2022/06/10 04:53:46;;;;;;;6.80;4.10;;;11.00;99.90;;;;;;5098263;28;20746;-90
2022/06/10 04:56:13;;;;;;;4.23;3.80;;;11.10;99.90;;;;;;5103106;28;20589;-90
2022/06/10 04:58:42;;;;;;;7.20;3.40;;;11.60;99.90;;;;;;5101787;28;20632;-89
2022/06/10 05:01:10;;;;;;;3.53;3.17;;;11.20;99.90;;;;;;5090814;28;20724;-90
2022/06/10 05:03:43;;;;;;;4.43;3.03;;;11.30;99.90;;;;;;5093700;28;20584;-90
2022/06/10 05:06:11;;;;;;;4.20;3.80;;;11.80;99.90;;;;;;5103141;28;21179;-89
2022/06/10 05:08:39;;;;;;;5.73;3.90;;;11.80;99.90;;;;;;5091895;28;21119;-90
2022/06/10 05:11:08;;;;;;;4.30;3.60;;;11.60;99.90;;;;;;5083806;28;20679;-90
2022/06/10 05:13:36;;;;;;;3.90;3.60;;;11.90;99.90;;;;;;5116677;28;20640;-90
2022/06/10 05:16:04;;;;;;;6.20;3.13;;;11.70;99.90;;;;;;5116833;28;20632;-89
2022/06/10 05:18:34;;;;;;;5.27;3.60;;;12.20;99.90;;;;;;5110934;28;20664;-91
2022/06/10 05:21:03;;;;;;;4.40;4.00;;;12.20;99.90;;;;;;5099486;28;20724;-91
2022/06/10 05:23:31;;;;;;;6.93;3.40;;;12.40;99.90;;;;;;5114458;28;20642;-91
2022/06/10 05:25:59;;;;;;;6.43;2.67;;;12.40;99.90;;;;;;5102287;28;20623;-90
2022/06/10 05:28:26;;;;;;;3.77;3.20;;;12.40;99.90;;;;;;5102291;28;20612;-92
2022/06/10 05:30:56;;;;;;;4.13;2.70;;;12.00;99.90;;;;;;5099983;28;20683;-91
2022/06/10 05:33:23;;;;;;;4.40;3.40;;;12.60;99.90;;;;;;5079036;28;20700;-91
2022/06/10 05:35:52;;;;;;;4.83;3.57;;;12.30;99.90;;;;;;5096671;28;20658;-91
2022/06/10 05:38:20;;;;;;;5.50;3.03;;;12.70;99.90;;;;;;5094422;28;20624;-90
2022/06/10 05:40:47;;;;;;;4.77;3.20;;;12.70;99.90;;;;;;5095383;28;20685;-91
2022/06/10 05:43:14;;;;;;;6.03;3.60;;;12.60;99.90;;;;;;5100614;28;21214;-90
2022/06/10 05:45:42;;;;;;;5.90;3.23;;;12.60;99.90;;;;;;5097299;28;20630;-90
2022/06/10 05:48:11;;;;;;;3.60;2.90;;;12.90;99.90;;;;;;5097659;28;20642;-81
2022/06/10 05:50:40;;;;;;;3.83;2.67;;;12.70;99.90;;;;;;5101263;28;20705;-84
2022/06/10 05:53:10;;;;;;;4.00;3.07;;;13.00;99.90;;;;;;5105774;28;20641;-83
2022/06/10 05:55:37;;;;;;;4.00;3.10;;;13.20;99.90;;;;;;5102000;28;21390;-83
2022/06/10 05:58:05;;;;;;;4.20;3.00;;;13.30;99.90;;;;;;5092349;28;20640;-83
2022/06/10 06:00:32;;;;;;;4.67;3.43;;;13.50;99.90;;;;;;5096703;28;20607;-83
2022/06/10 06:02:59;;;;;;;5.40;3.13;;;13.60;99.90;;;;;;5097797;28;20622;-83
2022/06/10 06:05:28;;;;;;;4.50;3.20;;;13.70;99.90;;;;;;5099085;28;20632;-83
2022/06/10 06:07:54;;;;;;;3.50;2.67;;;13.90;99.90;;;;;;5103074;28;21189;-83
2022/06/10 06:10:26;;;;;;;8.60;3.40;;;14.10;99.90;;;;;;5102159;28;20748;-83
2022/06/10 06:12:53;;;;;;;3.93;3.10;;;14.20;99.90;;;;;;5108502;28;20662;-83
2022/06/10 06:15:20;;;;;;;3.40;2.87;;;14.20;99.90;;;;;;5102230;28;20638;-83
2022/06/10 06:17:49;;;;;;;5.63;3.40;;;14.30;99.90;;;;;;5092565;28;20631;-84
2022/06/10 06:20:16;;;;;;;5.60;3.00;;;14.40;99.90;;;;;;5100197;28;20628;-84
2022/06/10 06:22:43;;;;;;;4.50;2.97;;;14.40;99.90;;;;;;5101085;28;20642;-84
2022/06/10 06:25:15;;;;;;;4.90;3.07;;;14.50;99.90;;;;;;5104378;28;21182;-84
2022/06/10 06:27:45;;;;;;;5.13;3.40;;;14.60;99.90;;;;;;5099257;28;20632;-82
2022/06/10 06:30:18;;;;;;;5.43;2.73;;;14.70;99.90;;;;;;5095394;28;20618;-82
2022/06/10 06:32:45;;;;;;;2.73;2.30;;;14.90;99.90;;;;;;5099852;28;20671;-82
2022/06/10 06:35:12;;;;;;;3.57;3.07;;;15.00;99.90;;;;;;5102023;28;20975;-83
2022/06/10 06:37:40;;;;;;;6.37;3.40;;;15.00;99.90;;;;;;5098854;28;20631;-82
2022/06/10 06:40:09;;;;;;;8.43;3.20;;;15.10;99.90;;;;;;5105545;28;20627;-82
2022/06/10 06:42:36;;;;;;;6.40;2.60;;;15.20;99.90;;;;;;5097262;28;20668;-82
2022/06/10 06:45:06;;;;;;;5.30;2.30;;;15.30;99.90;;;;;;5098676;28;20666;-83
2022/06/10 06:47:33;;;;;;;6.50;2.53;;;15.40;99.90;;;;;;5099397;28;20713;-82
2022/06/10 06:50:01;;;;;;;5.03;2.53;;;15.60;99.90;;;;;;5098757;28;20651;-81
2022/06/10 06:52:28;;;;;;;7.00;3.00;;;15.50;99.90;;;;;;5091181;28;20679;-81
2022/06/10 06:54:55;;;;;;;4.80;2.40;;;15.60;99.90;;;;;;5095664;28;20624;-82
2022/06/10 06:57:25;;;;;;;4.40;2.93;;;15.70;99.90;;;;;;5092333;28;20639;-82
2022/06/10 06:59:53;;;;;;;3.70;2.70;;;15.90;99.90;;;;;;5092584;28;20636;-81
2022/06/10 07:02:22;;;;;;;8.73;2.77;;;16.00;99.90;;;;;;5097076;28;20675;-81
2022/06/10 07:04:49;;;;;;;3.50;2.47;;;16.20;99.90;;;;;;5092303;28;20631;-82
2022/06/10 07:07:17;;;;;;;4.60;2.50;;;16.20;99.90;;;;;;5094186;28;20611;-84
2022/06/10 07:09:45;;;;;;;7.33;3.50;;;16.20;99.90;;;;;;5100698;28;21033;-82
2022/06/10 07:12:12;;;;;;;6.70;3.20;;;16.20;99.90;;;;;;5099585;28;20675;-81
2022/06/10 07:14:39;;;;;;;6.47;3.70;;;16.30;99.90;;;;;;5096056;28;20647;-81
2022/06/10 07:17:06;;;;;;;5.50;2.43;;;16.50;99.90;;;;;;5097030;28;20631;-81
2022/06/10 07:19:35;;;;;;;5.80;2.73;;;16.60;99.90;;;;;;5094790;28;20660;-81
2022/06/10 07:22:03;;;;;;;4.70;2.27;;;16.70;99.90;;;;;;5101217;28;20686;-81
2022/06/10 07:24:30;;;;;;;2.73;2.20;;;16.80;99.90;;;;;;5099916;28;20657;-81
2022/06/10 07:26:59;;;;;;;4.13;2.40;;;16.90;99.90;;;;;;5101196;28;21172;-81
2022/06/10 07:29:27;;;;;;;3.60;2.43;;;17.00;99.90;;;;;;5096329;28;20619;-82
2022/06/10 07:31:53;;;;;;;7.13;2.60;;;17.10;99.90;;;;;;5089446;28;21071;-81
2022/06/10 07:34:21;;;;;;;4.97;2.30;;;17.30;99.90;;;;;;5093669;28;21039;-82
2022/06/10 07:36:49;;;;;;;6.60;2.87;;;17.40;99.90;;;;;;5082530;28;20647;-82
2022/06/10 07:39:17;;;;;;;4.10;2.40;;;17.50;99.90;;;;;;5088375;28;20623;-83
2022/06/10 07:42:00;;;;;;;3.90;2.10;;;17.60;99.90;;;;;;5092327;28;20647;-81
2022/06/10 07:44:31;;;;;;;2.40;2.20;;;17.80;99.90;;;;;;5087395;28;20635;-82
2022/06/10 07:47:00;;;;;;;5.50;2.33;;;17.90;99.90;;;;;;5086005;28;21182;-81
2022/06/10 07:49:26;;;;;;;4.20;3.10;;;18.00;99.90;;;;;;5089995;28;20617;-81
2022/06/10 07:51:55;;;;;;;4.63;1.70;;;18.10;99.90;;;;;;5094008;28;20680;-81
2022/06/10 07:54:23;;;;;;;4.00;2.00;;;18.20;99.90;;;;;;5097876;28;20636;-81
2022/06/10 07:56:50;;;;;;;5.27;1.80;;;18.40;99.90;;;;;;5100144;28;20967;-81
2022/06/10 07:59:17;;;;;;;3.23;1.40;;;18.40;99.90;;;;;;5101456;28;20632;-81
2022/06/10 08:01:44;;;;;;;1.90;1.40;;;18.50;99.90;;;;;;5106939;28;21267;-82
2022/06/10 08:04:11;;;;;;;3.40;1.80;;;18.50;99.90;;;;;;5111328;28;20662;-82
2022/06/10 08:06:40;;;;;;;3.30;1.60;;;18.60;99.90;;;;;;5115292;28;20639;-81
2022/06/10 08:09:10;;;;;;;6.00;1.47;;;18.70;99.90;;;;;;5112176;28;20681;-81
2022/06/10 08:11:37;;;;;;;2.80;1.53;;;18.80;99.90;;;;;;5114435;28;20757;-83
2022/06/10 08:14:04;;;;;;;4.10;1.50;;;18.90;99.90;;;;;;5114750;28;20649;-82
2022/06/10 08:16:31;;;;;;;3.00;1.63;;;19.10;99.90;;;;;;5119539;28;20655;-81
2022/06/10 08:18:58;;;;;;;3.30;1.57;;;19.20;99.90;;;;;;5112252;28;20638;-82
2022/06/10 08:24:13;;;;;;;1.80;1.50;;;19.40;99.90;;;;;;5117957;28;20607;-81
2022/06/10 08:26:40;;;;;;;3.77;1.80;;;19.40;99.90;;;;;;5107133;28;20794;-81
2022/06/10 08:29:07;;;;;;;3.20;1.60;;;19.50;99.90;;;;;;5115342;28;20731;-81
2022/06/10 08:31:35;;;;;;;5.03;1.77;;;19.50;99.90;;;;;;5111236;28;20709;-81
2022/06/10 08:34:03;;;;;;;3.13;1.60;;;19.50;99.90;;;;;;5105540;28;20628;-81
2022/06/10 08:36:30;;;;;;;1.90;1.73;;;19.50;99.90;;;;;;5101538;28;20631;-81
2022/06/10 08:38:57;;;;;;;7.23;1.50;;;19.50;99.90;;;;;;5103899;28;20638;-81
2022/06/10 08:41:37;;;;;;;3.13;1.73;;;19.70;99.90;;;;;;5103778;28;20640;-81
2022/06/10 08:44:11;;;;;;;9.80;2.20;;;19.80;99.90;;;;;;5106722;28;20626;-81
2022/06/10 08:47:23;;;;;;;6.83;2.13;;;19.90;99.90;;;;;;5102701;28;20608;-81
2022/06/10 08:50:17;;;;;;;3.13;1.63;;;20.00;99.90;;;;;;5092838;28;20631;-81
2022/06/10 08:52:53;;;;;;;2.83;1.40;;;20.10;99.90;;;;;;5101271;28;21035;-81
2022/06/10 08:55:41;;;;;;;4.70;1.97;;;20.10;99.90;;;;;;5094437;28;20623;-82
2022/06/10 08:58:17;;;;;;;4.60;3.33;;;20.20;99.90;;;;;;5089056;28;20599;-82
2022/06/10 09:00:45;;;;;;;3.53;2.17;;;20.40;99.90;;;;;;5100523;28;20650;-82
2022/06/10 09:03:19;;;;;;;4.80;1.90;;;20.60;99.90;;;;;;5099169;28;20626;-81
2022/06/10 09:05:48;;;;;;;3.43;1.30;;;20.60;99.90;;;;;;5103115;28;21195;-81
2022/06/10 09:08:17;;;;;;;2.50;1.57;;;20.70;99.90;;;;;;5103091;28;20623;-81
2022/06/10 09:10:49;;;;;;;5.27;2.20;;;20.70;99.90;;;;;;5103887;28;20674;-81
2022/06/10 09:13:31;;;;;;;3.50;1.50;;;20.70;99.90;;;;;;5102576;28;20647;-82
2022/06/10 09:16:04;;;;;;;4.77;2.03;;;20.80;99.90;;;;;;5105759;28;21113;-82
2022/06/10 09:18:39;;;;;;;2.50;1.40;;;20.80;99.90;;;;;;5096840;28;20655;-81
2022/06/10 09:21:13;;;;;;;6.57;3.13;;;20.90;99.90;;;;;;5103649;28;20654;-81
2022/06/10 09:23:43;;;;;;;6.60;2.10;;;21.00;99.20;;;;;;5103261;28;21281;-81
2022/06/10 09:26:17;;;;;;;5.83;2.30;;;21.00;98.10;;;;;;5099113;28;20634;-82
2022/06/10 09:28:46;;;;;;;3.90;1.70;;;21.10;98.50;;;;;;5099731;28;20629;-82
2022/06/10 09:31:33;;;;;;;4.80;1.70;;;21.30;97.80;;;;;;5098564;28;20679;-81
2022/06/10 09:34:09;;;;;;;4.20;1.73;;;21.30;96.80;;;;;;5093298;28;20706;-82
2022/06/10 09:36:43;;;;;;;4.67;1.60;;;21.40;98.30;;;;;;5102538;28;20620;-82
2022/06/10 09:42:11;;;;;;;4.53;1.80;;;21.50;97.30;;;;;;5090838;28;20639;-82
2022/06/10 09:44:45;;;;;;;4.47;1.90;;;21.70;95.80;;;;;;5102394;28;20626;-82
2022/06/10 09:47:27;;;;;;;4.53;1.70;;;21.80;95.90;;;;;;5097378;28;20614;-82
2022/06/10 09:50:07;;;;;;;2.67;1.43;;;21.90;96.50;;;;;;5097232;28;20635;-81
2022/06/10 09:52:42;;;;;;;4.13;1.67;;;22.10;95.80;;;;;;5101932;28;20674;-82
2022/06/10 09:55:29;;;;;;;8.10;2.60;;;22.30;92.90;;;;;;5103681;28;20627;-82
2022/06/10 09:58:17;;;;;;;2.40;1.17;;;22.30;90.10;;;;;;5095678;28;20619;-82
2022/06/10 10:00:54;;;;;;;2.33;1.20;;;22.40;90.50;;;;;;5103238;28;20659;-82
2022/06/10 10:03:36;;;;;;;2.27;1.73;;;22.60;91.00;;;;;;5099718;28;20616;-82
2022/06/10 10:06:17;;;;;;;4.07;1.93;;;22.60;93.00;;;;;;5100303;28;20718;-81
2022/06/10 10:08:53;;;;;;;4.90;1.93;;;22.60;95.50;;;;;;5103170;28;20639;-82
2022/06/10 10:11:31;;;;;;;7.80;2.40;;;22.50;94.10;;;;;;5101492;28;20705;-81
2022/06/10 10:14:06;;;;;;;3.93;1.50;;;22.50;92.10;;;;;;5099288;28;20663;-81
2022/06/10 10:16:45;;;;;;;2.77;1.73;;;22.50;91.60;;;;;;5102117;28;20626;-81
2022/06/10 10:19:35;;;;;;;3.90;1.83;;;22.70;93.70;;;;;;5093542;28;20715;-81
2022/06/10 10:22:17;;;;;;;4.20;1.93;;;22.80;92.70;;;;;;5102379;28;20651;-81
2022/06/10 10:24:46;;;;;;;3.83;1.93;;;22.80;91.40;;;;;;5103568;28;20912;-81
2022/06/10 10:27:19;;;;;;;3.83;2.00;;;22.90;94.40;;;;;;5099787;28;20727;-81
2022/06/10 10:29:50;;;;;;;3.33;2.03;;;23.10;95.00;;;;;;5104497;28;20611;-81
2022/06/10 10:32:21;;;;;;;3.97;1.70;;;23.30;94.50;;;;;;5094126;28;20662;-81
2022/06/10 10:34:54;;;;;;;3.80;1.70;;;23.30;90.90;;;;;;5097110;28;20627;-80
2022/06/10 10:37:23;;;;;;;5.17;2.57;;;23.30;92.10;;;;;;5098213;28;20612;-81
2022/06/10 10:39:52;;;;;;;4.33;2.13;;;23.30;92.80;;;;;;5096872;28;20632;-81
2022/06/10 10:42:23;;;;;;;6.07;1.60;;;23.30;90.90;;;;;;5101754;28;20643;-81
2022/06/10 10:44:56;;;;;;;2.90;1.30;;;23.30;90.40;;;;;;5099429;28;20607;-81
2022/06/10 10:47:26;;;;;;;7.40;1.90;;;23.30;90.80;;;;;;5093334;28;20616;-80
2022/06/10 10:49:58;;;;;;;2.60;1.33;;;23.50;89.30;;;;;;5077272;28;20630;-80
2022/06/10 10:52:28;;;;;;;4.13;1.47;;;23.70;89.60;;;;;;5098361;28;20713;-80
2022/06/10 10:54:57;;;;;;;4.60;1.87;;;23.80;82.50;;;;;;5093730;28;20636;-80
2022/06/10 10:57:29;;;;;;;4.33;1.47;;;24.00;82.40;;;;;;5097623;28;20695;-80
2022/06/10 11:00:06;;;;;;;1.80;1.40;;;24.30;77.30;;;;;;5095831;28;21194;-81
2022/06/10 11:02:39;;;;;;;4.30;1.50;;;24.40;75.10;;;;;;5095591;28;20655;-80
2022/06/10 11:05:21;;;;;;;4.43;2.10;;;24.60;78.10;;;;;;5101059;28;20623;-80
2022/06/10 11:08:12;;;;;;;4.40;2.20;;;25.00;76.30;;;;;;5094959;28;20669;-80
2022/06/10 11:10:49;;;;;;;4.20;1.90;;;25.10;76.60;;;;;;5095636;28;21252;-80
2022/06/10 11:13:20;;;;;;;2.83;1.47;;;25.10;75.00;;;;;;5097671;28;20658;-80
2022/06/10 11:15:48;;;;;;;4.63;1.50;;;25.10;74.00;;;;;;5096579;28;20615;-80
2022/06/10 11:18:17;;;;;;;3.13;1.60;;;25.10;73.00;;;;;;5100478;28;20688;-81
2022/06/10 11:20:44;;;;;;;4.20;1.83;;;25.10;72.70;;;;;;5098820;28;21212;-80
2022/06/10 11:23:18;;;;;;;3.63;1.40;;;25.40;72.70;;;;;;5104484;28;20626;-82
2022/06/10 11:25:46;;;;;;;4.50;1.90;;;25.60;70.90;;;;;;5092736;28;20611;-81
2022/06/10 11:28:22;;;;;;;4.13;1.67;;;25.90;68.10;;;;;;5090496;28;20616;-81
2022/06/10 11:30:50;;;;;;;2.43;1.50;;;26.10;64.40;;;;;;5097905;28;20655;-81
2022/06/10 11:33:26;;;;;;;3.77;1.57;;;26.30;62.60;;;;;;5102573;28;20666;-80
2022/06/10 11:36:21;;;;;;;2.83;1.17;;;26.40;61.50;;;;;;5100555;28;20664;-82
2022/06/10 11:38:51;;;;;;;2.33;1.30;;;26.50;62.70;;;;;;5092760;28;20653;-81
2022/06/10 11:41:28;;;;;;;2.77;1.50;;;26.30;63.50;;;;;;5107274;28;20767;-80
2022/06/10 11:44:02;;;;;;;4.47;1.47;;;26.30;63.00;;;;;;5100134;28;20618;-81
2022/06/10 11:46:35;;;;;;;3.37;1.40;;;26.30;63.70;;;;;;5101055;28;20630;-81
2022/06/10 11:49:11;;;;;;;2.90;1.40;;;26.40;60.60;;;;;;5101448;28;20625;-81
2022/06/10 11:51:43;;;;;;;2.47;1.40;;;26.60;58.40;;;;;;5107032;28;20707;-80
2022/06/10 11:54:23;;;;;;;3.03;1.30;;;26.80;57.80;;;;;;5105133;28;20670;-81
2022/06/10 11:59:54;;;;;;;1.57;1.20;;;27.30;56.70;;;;;;5097790;28;21210;-81
2022/06/10 12:02:30;;;;;;;2.60;1.10;;;27.50;54.50;;;;;;5106780;28;21128;-81
2022/06/10 12:05:05;;;;;;;1.33;0.73;;;27.40;52.80;;;;;;5100824;28;21059;-81
2022/06/10 12:07:36;;;;;;;2.23;1.17;;;27.60;52.20;;;;;;5104513;28;20656;-81
2022/06/10 12:10:08;;;;;;;1.77;1.00;;;27.90;50.60;;;;;;5108901;28;20614;-81
2022/06/10 12:12:41;;;;;;;3.83;1.40;;;28.00;49.80;;;;;;5105412;28;20718;-81
2022/06/10 12:15:20;;;;;;;2.30;1.23;;;28.20;49.70;;;;;;5104054;28;20618;-81
2022/06/10 12:17:49;;;;;;;2.10;1.20;;;28.30;49.30;;;;;;5103503;28;20726;-81
2022/06/10 12:20:24;;;;;;;2.63;1.30;;;28.60;48.50;;;;;;5106802;28;20628;-81
2022/06/10 12:22:53;;;;;;;3.10;1.53;;;28.70;47.80;;;;;;5102863;28;20618;-81
2022/06/10 12:25:23;;;;;;;2.30;1.17;;;28.90;47.80;;;;;;5104372;28;20722;-81
2022/06/10 12:27:56;;;;;;;4.83;1.10;;;29.00;48.10;;;;;;5101155;28;20627;-81
2022/06/10 12:30:32;;;;;;;1.73;1.00;;;28.90;47.10;;;;;;5106211;28;20629;-79
2022/06/10 12:33:05;;;;;;;2.10;1.07;;;29.40;47.40;;;;;;5103555;28;20627;-81
2022/06/10 12:35:35;;;;;;;1.53;1.00;;;30.10;47.10;;;;;;5103090;28;20604;-81
2022/06/10 12:38:06;;;;;;;4.17;1.20;;;30.50;47.70;;;;;;5102404;28;20722;-81
2022/06/10 12:40:37;;;;;;;3.50;1.87;;;30.30;46.10;;;;;;5095859;28;20648;-81
2022/06/10 12:43:12;;;;;;;2.23;1.53;;;30.40;46.50;;;;;;5097864;28;21170;-80
2022/06/10 12:45:44;;;;;;;3.83;1.33;;;30.70;45.50;;;;;;5099326;28;20995;-80
2022/06/10 12:48:15;;;;;;;3.03;1.33;;;30.80;45.50;;;;;;5089070;28;20627;-80
2022/06/10 12:50:53;;;;;;;3.17;1.20;;;30.60;44.90;;;;;;5099031;28;20655;-80
2022/06/10 12:53:39;;;;;;;3.13;1.10;;;30.60;43.40;;;;;;5099864;28;20674;-80
2022/06/10 12:56:19;;;;;;;3.37;1.47;;;30.70;43.60;;;;;;5103310;28;21132;-81
2022/06/10 12:58:50;;;;;;;2.33;1.33;;;31.10;43.90;;;;;;5100176;28;20618;-81
2022/06/10 13:01:24;;;;;;;3.13;1.33;;;31.40;40.90;;;;;;5092826;28;20655;-80
2022/06/10 13:03:52;;;;;;;2.13;1.30;;;31.40;41.10;;;;;;5093795;28;20633;-80
2022/06/10 13:06:56;;;;;;;2.87;1.10;;;31.40;40.70;;;;;;5101880;28;20630;-80
2022/06/10 13:09:34;;;;;;;2.97;1.27;;;31.70;41.40;;;;;;5099477;28;20638;-81
2022/06/10 13:12:34;;;;;;;4.53;1.10;;;32.10;41.50;;;;;;5102106;28;21032;-81
2022/06/10 13:15:17;;;;;;;1.80;1.10;;;32.00;39.70;;;;;;5103340;28;20666;-80
2022/06/10 13:17:57;;;;;;;1.70;1.20;;;32.10;39.50;;;;;;5095184;28;20660;-80
2022/06/10 13:20:27;;;;;;;2.70;1.10;;;32.70;40.60;;;;;;5106889;28;20578;-81
2022/06/10 13:23:16;;;;;;;2.73;0.90;;;33.20;41.10;;;;;;5103864;28;20671;-79
2022/06/10 13:25:47;;;;;;;2.90;0.90;;;32.30;35.90;;;;;;5103031;28;20618;-80
2022/06/10 13:28:26;;;;;;;0.90;0.73;;;32.20;36.30;;;;;;5103887;28;20629;-80